createdAt,value
2019-05-06T00:00:00.242Z,81.51
2019-05-06T00:01:00.258Z,81.85
2019-05-06T00:02:00.221Z,81.51
2019-05-06T00:03:00.227Z,81.71
2019-05-06T00:04:01.000Z,81.44
2019-05-06T00:05:00.183Z,82.48
2019-05-06T00:06:00.179Z,82.17
2019-05-06T00:07:00.183Z,82.27
2019-05-06T00:08:00.170Z,83.00
2019-05-06T00:09:00.139Z,83.10
2019-05-06T00:10:00.135Z,83.72
2019-05-06T00:11:00.119Z,83.45
2019-05-06T00:12:00.111Z,83.55
2019-05-06T00:13:00.114Z,83.97
2019-05-06T00:14:00.087Z,84.23
2019-05-06T00:15:00.084Z,83.45
2019-05-06T00:16:00.069Z,83.76
2019-05-06T00:17:00.051Z,84.07
2019-05-06T00:18:00.043Z,84.07
2019-05-06T00:19:00.039Z,84.07
2019-05-06T00:20:00.047Z,85.21
2019-05-06T00:21:00.007Z,85.21
2019-05-06T00:21:59.999Z,85.21
2019-05-06T00:22:59.984Z,85.56
2019-05-06T00:24:00.002Z,85.52
2019-05-06T00:24:59.968Z,85.35
2019-05-06T00:25:59.993Z,85.56
2019-05-06T00:26:59.943Z,85.66
2019-05-06T00:27:59.927Z,85.56
2019-05-06T00:28:59.935Z,85.35
2019-05-06T00:29:59.907Z,85.56
2019-05-06T00:31:10.375Z,85.56
2019-05-06T00:32:00.903Z,85.94
2019-05-06T00:32:59.880Z,85.66
2019-05-06T00:33:59.862Z,85.66
2019-05-06T00:34:59.854Z,86.08
2019-05-06T00:36:00.537Z,86.95
2019-05-06T00:36:59.855Z,87.47
2019-05-06T00:37:59.847Z,87.37
2019-05-06T00:38:59.838Z,87.78
2019-05-06T00:39:59.795Z,87.78
2019-05-06T00:40:59.787Z,87.78
2019-05-06T00:41:59.779Z,87.82
2019-05-06T00:42:59.763Z,88.09
2019-05-06T00:43:59.768Z,88.02
2019-05-06T00:44:59.751Z,88.20
2019-05-06T00:45:59.743Z,87.92
2019-05-06T00:46:59.722Z,88.54
2019-05-06T00:47:59.718Z,88.75
2019-05-06T00:48:59.711Z,88.44
2019-05-06T00:49:59.706Z,88.96
2019-05-06T00:50:59.678Z,88.96
2019-05-06T00:51:59.667Z,89.06
2019-05-06T00:52:59.655Z,88.85
2019-05-06T00:53:59.639Z,89.58
2019-05-06T00:54:59.635Z,89.48
2019-05-06T00:55:59.660Z,89.69
2019-05-06T00:56:59.610Z,89.37
2019-05-06T00:57:59.594Z,89.48
2019-05-06T00:58:59.589Z,89.89
2019-05-06T00:59:59.575Z,90.20
2019-05-06T01:00:59.601Z,90.31
2019-05-06T01:01:59.566Z,89.69
2019-05-06T01:02:59.545Z,89.21
2019-05-06T01:03:59.546Z,89.48
2019-05-06T01:04:59.531Z,88.90
2019-05-06T01:05:59.514Z,90.25
2019-05-06T01:06:59.498Z,90.00
2019-05-06T01:07:59.519Z,89.94
2019-05-06T01:08:59.491Z,90.45
2019-05-06T01:09:59.470Z,89.94
2019-05-06T01:10:59.459Z,90.87
2019-05-06T01:11:59.443Z,91.08
2019-05-06T01:12:59.431Z,90.97
2019-05-06T01:13:59.436Z,90.87
2019-05-06T01:14:59.450Z,90.97
2019-05-06T01:15:59.404Z,90.97
2019-05-06T01:16:59.386Z,90.87
2019-05-06T01:17:59.382Z,90.87
2019-05-06T01:18:59.381Z,90.70
2019-05-06T01:19:59.366Z,90.35
2019-05-06T01:20:59.355Z,90.87
2019-05-06T01:21:59.338Z,90.35
2019-05-06T01:22:59.335Z,90.60
2019-05-06T01:23:59.315Z,91.02
2019-05-06T01:24:59.299Z,90.60
2019-05-06T01:25:59.313Z,90.91
2019-05-06T01:26:59.303Z,91.74
2019-05-06T01:27:59.267Z,91.02
2019-05-06T01:28:59.259Z,91.33
2019-05-06T01:29:59.275Z,91.74
2019-05-06T01:30:59.238Z,91.02
2019-05-06T01:31:59.267Z,90.81
2019-05-06T01:32:59.211Z,91.02
2019-05-06T01:33:59.206Z,91.02
2019-05-06T01:34:59.206Z,91.74
2019-05-06T01:35:59.178Z,92.26
2019-05-06T01:36:59.178Z,91.74
2019-05-06T01:37:59.190Z,91.53
2019-05-06T01:38:59.149Z,92.36
2019-05-06T01:39:59.146Z,91.95
2019-05-06T01:40:59.126Z,91.64
2019-05-06T01:41:59.111Z,91.64
2019-05-06T01:42:59.098Z,92.05
2019-05-06T01:43:59.111Z,91.95
2019-05-06T01:44:59.080Z,92.01
2019-05-06T01:45:59.070Z,90.81
2019-05-06T01:46:59.059Z,91.12
2019-05-06T01:47:59.042Z,91.12
2019-05-06T01:48:59.046Z,90.81
2019-05-06T01:49:59.042Z,90.39
2019-05-06T01:50:59.026Z,91.02
2019-05-06T01:51:59.003Z,90.70
2019-05-06T01:52:58.990Z,91.22
2019-05-06T01:53:58.978Z,90.91
2019-05-06T01:54:58.970Z,91.02
2019-05-06T01:55:58.971Z,91.28
2019-05-06T01:56:58.974Z,91.22
2019-05-06T01:57:58.938Z,91.74
2019-05-06T01:58:58.923Z,91.12
2019-05-06T01:59:58.914Z,91.43
2019-05-06T02:00:58.898Z,91.43
2019-05-06T02:02:01.125Z,90.91
2019-05-06T02:02:58.886Z,90.70
2019-05-06T02:03:58.887Z,91.02
2019-05-06T02:04:58.863Z,90.70
2019-05-06T02:05:58.854Z,90.70
2019-05-06T02:06:58.834Z,90.39
2019-05-06T02:07:58.828Z,90.81
2019-05-06T02:08:58.811Z,91.02
2019-05-06T02:09:58.822Z,91.02
2019-05-06T02:10:58.790Z,90.60
2019-05-06T02:11:58.783Z,90.60
2019-05-06T02:12:58.784Z,90.60
2019-05-06T02:13:58.758Z,90.91
2019-05-06T02:14:58.742Z,90.81
2019-05-06T02:15:58.747Z,90.60
2019-05-06T02:16:58.730Z,90.60
2019-05-06T02:17:58.730Z,90.66
2019-05-06T02:18:58.706Z,90.70
2019-05-06T02:19:58.698Z,91.02
2019-05-06T02:20:58.682Z,90.70
2019-05-06T02:21:58.706Z,90.81
2019-05-06T02:22:58.674Z,90.70
2019-05-06T02:23:58.650Z,90.91
2019-05-06T02:24:58.646Z,90.70
2019-05-06T02:25:58.626Z,90.60
2019-05-06T02:26:58.627Z,91.02
2019-05-06T02:27:58.619Z,90.77
2019-05-06T02:28:58.594Z,90.81
2019-05-06T02:29:58.586Z,90.91
2019-05-06T02:30:58.571Z,90.81
2019-05-06T02:32:15.762Z,90.91
2019-05-06T02:32:59.562Z,90.19
2019-05-06T02:33:58.539Z,90.29
2019-05-06T02:34:58.528Z,90.50
2019-05-06T02:35:58.513Z,90.19
2019-05-06T02:36:58.508Z,89.83
2019-05-06T02:37:58.519Z,89.62
2019-05-06T02:38:58.502Z,89.42
2019-05-06T02:39:58.478Z,89.42
2019-05-06T02:40:58.459Z,89.31
2019-05-06T02:41:58.459Z,89.42
2019-05-06T02:42:58.438Z,89.21
2019-05-06T02:43:58.422Z,89.21
2019-05-06T02:44:58.446Z,89.11
2019-05-06T02:45:58.407Z,89.00
2019-05-06T02:46:58.404Z,88.59
2019-05-06T02:47:58.383Z,88.38
2019-05-06T02:48:58.368Z,89.42
2019-05-06T02:49:58.359Z,88.69
2019-05-06T02:50:58.374Z,89.00
2019-05-06T02:51:58.338Z,88.90
2019-05-06T02:52:58.331Z,88.69
2019-05-06T02:53:58.342Z,88.69
2019-05-06T02:54:58.308Z,88.69
2019-05-06T02:55:58.306Z,89.42
2019-05-06T02:56:58.317Z,89.11
2019-05-06T02:57:58.272Z,89.42
2019-05-06T02:58:58.259Z,88.59
2019-05-06T02:59:58.250Z,89.21
2019-05-06T03:00:58.234Z,89.21
2019-05-06T03:01:58.246Z,89.11
2019-05-06T03:02:58.238Z,89.11
2019-05-06T03:03:58.219Z,89.31
2019-05-06T03:04:58.195Z,89.00
2019-05-06T03:05:58.181Z,89.31
2019-05-06T03:06:58.175Z,89.52
2019-05-06T03:07:58.179Z,89.04
2019-05-06T03:08:58.150Z,89.42
2019-05-06T03:09:58.140Z,89.31
2019-05-06T03:10:58.130Z,89.46
2019-05-06T03:11:58.126Z,89.94
2019-05-06T03:12:58.112Z,89.52
2019-05-06T03:13:58.103Z,89.62
2019-05-06T03:14:58.103Z,89.42
2019-05-06T03:15:58.074Z,89.73
2019-05-06T03:16:58.081Z,89.52
2019-05-06T03:17:58.051Z,89.42
2019-05-06T03:18:58.054Z,89.31
2019-05-06T03:19:58.030Z,89.62
2019-05-06T03:20:58.019Z,89.31
2019-05-06T03:21:58.008Z,89.21
2019-05-06T03:22:57.998Z,89.11
2019-05-06T03:23:58.034Z,89.00
2019-05-06T03:24:57.996Z,89.21
2019-05-06T03:25:57.963Z,89.21
2019-05-06T03:26:57.947Z,89.21
2019-05-06T03:27:57.955Z,88.90
2019-05-06T03:28:57.933Z,89.52
2019-05-06T03:29:57.914Z,88.90
2019-05-06T03:30:57.927Z,89.42
2019-05-06T03:31:58.030Z,89.00
2019-05-06T03:33:31.403Z,89.52
2019-05-06T03:34:21.765Z,89.31
2019-05-06T03:35:16.586Z,89.42
2019-05-06T03:36:13.783Z,89.21
2019-05-06T03:36:58.882Z,89.21
2019-05-06T03:37:57.851Z,89.11
2019-05-06T03:38:57.851Z,89.21
2019-05-06T03:39:57.820Z,88.90
2019-05-06T03:40:57.810Z,88.90
2019-05-06T03:41:57.786Z,89.00
2019-05-06T03:42:57.770Z,88.79
2019-05-06T03:43:57.779Z,89.21
2019-05-06T03:44:57.758Z,89.11
2019-05-06T03:45:57.742Z,89.42
2019-05-06T03:46:57.739Z,89.00
2019-05-06T03:47:57.733Z,89.21
2019-05-06T03:48:57.715Z,89.31
2019-05-06T03:49:57.727Z,89.11
2019-05-06T03:50:57.687Z,88.38
2019-05-06T03:51:57.699Z,89.21
2019-05-06T03:52:57.698Z,89.21
2019-05-06T03:53:57.661Z,89.62
2019-05-06T03:54:57.647Z,89.42
2019-05-06T03:55:57.661Z,89.21
2019-05-06T03:56:57.626Z,89.21
2019-05-06T03:57:57.615Z,89.62
2019-05-06T03:58:57.619Z,89.42
2019-05-06T03:59:57.588Z,89.42
2019-05-06T04:00:57.571Z,89.31
2019-05-06T04:01:57.595Z,89.31
2019-05-06T04:02:57.558Z,89.31
2019-05-06T04:03:57.638Z,89.11
2019-05-06T04:04:57.553Z,89.52
2019-05-06T04:05:57.538Z,89.52
2019-05-06T04:06:57.514Z,88.69
2019-05-06T04:07:57.537Z,89.21
2019-05-06T04:08:57.483Z,89.11
2019-05-06T04:09:57.491Z,89.52
2019-05-06T04:10:57.470Z,89.73
2019-05-06T04:11:57.458Z,89.42
2019-05-06T04:12:57.438Z,89.00
2019-05-06T04:13:57.450Z,89.00
2019-05-06T04:14:57.434Z,89.00
2019-05-06T04:15:57.410Z,89.52
2019-05-06T04:16:57.423Z,89.21
2019-05-06T04:17:57.410Z,89.21
2019-05-06T04:18:57.374Z,89.42
2019-05-06T04:19:57.386Z,89.42
2019-05-06T04:20:57.357Z,89.62
2019-05-06T04:21:57.370Z,89.21
2019-05-06T04:22:57.329Z,89.52
2019-05-06T04:23:57.341Z,89.48
2019-05-06T04:24:57.310Z,89.11
2019-05-06T04:25:57.294Z,88.96
2019-05-06T04:26:57.288Z,89.06
2019-05-06T04:27:57.309Z,88.75
2019-05-06T04:28:57.268Z,88.65
2019-05-06T04:29:57.271Z,88.54
2019-05-06T04:30:57.247Z,88.54
2019-05-06T04:31:57.228Z,88.34
2019-05-06T04:32:57.248Z,88.96
2019-05-06T04:34:10.100Z,88.65
2019-05-06T04:34:58.212Z,88.85
2019-05-06T04:35:57.191Z,88.75
2019-05-06T04:36:57.198Z,88.85
2019-05-06T04:37:57.182Z,89.00
2019-05-06T04:38:57.162Z,88.59
2019-05-06T04:39:57.142Z,89.31
2019-05-06T04:40:57.135Z,89.21
2019-05-06T04:41:57.131Z,88.90
2019-05-06T04:42:57.128Z,89.11
2019-05-06T04:43:57.108Z,89.42
2019-05-06T04:44:57.087Z,89.73
2019-05-06T04:45:57.074Z,89.11
2019-05-06T04:46:57.075Z,89.58
2019-05-06T04:47:57.055Z,89.06
2019-05-06T04:48:57.054Z,89.17
2019-05-06T04:49:57.044Z,89.00
2019-05-06T04:50:57.039Z,89.21
2019-05-06T04:51:57.010Z,89.31
2019-05-06T04:52:56.998Z,89.52
2019-05-06T04:53:56.998Z,89.52
2019-05-06T04:54:56.982Z,89.21
2019-05-06T04:55:56.963Z,89.00
2019-05-06T04:56:56.990Z,89.31
2019-05-06T04:57:56.954Z,89.11
2019-05-06T04:58:56.951Z,89.58
2019-05-06T04:59:56.918Z,89.42
2019-05-06T05:00:56.915Z,89.42
2019-05-06T05:01:56.909Z,89.52
2019-05-06T05:02:56.894Z,89.11
2019-05-06T05:03:56.898Z,89.00
2019-05-06T05:04:56.883Z,89.52
2019-05-06T05:05:56.860Z,89.73
2019-05-06T05:06:56.846Z,89.42
2019-05-06T05:07:56.838Z,89.42
2019-05-06T05:08:56.823Z,89.42
2019-05-06T05:09:56.812Z,89.11
2019-05-06T05:10:56.812Z,89.62
2019-05-06T05:11:56.787Z,89.00
2019-05-06T05:12:56.776Z,88.59
2019-05-06T05:13:56.806Z,89.06
2019-05-06T05:14:56.763Z,88.48
2019-05-06T05:15:56.762Z,88.96
2019-05-06T05:16:56.737Z,88.85
2019-05-06T05:17:56.718Z,88.34
2019-05-06T05:18:56.710Z,87.92
2019-05-06T05:19:56.730Z,88.85
2019-05-06T05:20:56.734Z,88.85
2019-05-06T05:21:56.702Z,89.06
2019-05-06T05:22:56.670Z,88.34
2019-05-06T05:23:56.658Z,88.54
2019-05-06T05:24:56.646Z,88.02
2019-05-06T05:25:56.630Z,88.34
2019-05-06T05:26:56.633Z,88.34
2019-05-06T05:27:56.646Z,87.68
2019-05-06T05:28:56.608Z,87.88
2019-05-06T05:29:56.590Z,87.88
2019-05-06T05:30:56.580Z,87.84
2019-05-06T05:31:56.568Z,87.22
2019-05-06T05:32:56.558Z,87.12
2019-05-06T05:33:56.562Z,87.01
2019-05-06T05:34:56.533Z,87.18
2019-05-06T05:35:56.518Z,87.38
2019-05-06T05:36:56.514Z,86.15
2019-05-06T05:37:56.498Z,86.00
2019-05-06T05:38:56.524Z,85.83
2019-05-06T05:39:56.506Z,86.00
2019-05-06T05:40:56.461Z,85.89
2019-05-06T05:41:56.477Z,85.38
2019-05-06T05:42:56.446Z,85.24
2019-05-06T05:43:56.435Z,85.38
2019-05-06T05:44:56.422Z,85.34
2019-05-06T05:45:56.414Z,85.79
2019-05-06T05:46:56.406Z,85.24
2019-05-06T05:47:56.410Z,85.24
2019-05-06T05:48:56.441Z,85.03
2019-05-06T05:49:56.391Z,85.13
2019-05-06T05:50:56.358Z,85.44
2019-05-06T05:51:56.345Z,85.09
2019-05-06T05:52:56.341Z,85.50
2019-05-06T05:53:56.341Z,84.06
2019-05-06T05:54:56.346Z,83.33
2019-05-06T05:55:56.297Z,83.44
2019-05-06T05:56:56.286Z,83.85
2019-05-06T05:57:56.326Z,83.12
2019-05-06T05:58:56.271Z,84.06
2019-05-06T05:59:56.258Z,83.54
2019-05-06T06:00:56.274Z,83.44
2019-05-06T06:01:56.238Z,83.91
2019-05-06T06:02:56.226Z,83.91
2019-05-06T06:03:56.214Z,83.40
2019-05-06T06:04:57.681Z,82.88
2019-05-06T06:05:56.198Z,83.71
2019-05-06T06:06:56.198Z,82.98
2019-05-06T06:07:56.167Z,83.40
2019-05-06T06:08:56.158Z,83.19
2019-05-06T06:09:56.146Z,83.19
2019-05-06T06:10:56.134Z,83.40
2019-05-06T06:11:56.210Z,83.19
2019-05-06T06:12:56.123Z,82.98
2019-05-06T06:13:56.103Z,83.50
2019-05-06T06:14:56.502Z,82.46
2019-05-06T06:15:56.129Z,83.29
2019-05-06T06:16:56.078Z,83.50
2019-05-06T06:17:56.074Z,83.61
2019-05-06T06:18:56.042Z,83.50
2019-05-06T06:19:56.075Z,83.56
2019-05-06T06:20:56.022Z,83.56
2019-05-06T06:21:56.014Z,83.15
2019-05-06T06:22:56.001Z,83.67
2019-05-06T06:23:55.996Z,82.90
2019-05-06T06:24:55.978Z,81.70
2019-05-06T06:25:56.069Z,83.15
2019-05-06T06:26:55.962Z,82.84
2019-05-06T06:27:55.945Z,83.22
2019-05-06T06:28:55.950Z,82.64
2019-05-06T06:29:55.930Z,83.05
2019-05-06T06:30:55.914Z,83.01
2019-05-06T06:31:55.946Z,82.90
2019-05-06T06:32:55.886Z,83.22
2019-05-06T06:33:55.878Z,82.90
2019-05-06T06:35:07.474Z,81.87
2019-05-06T06:35:56.854Z,82.08
2019-05-06T06:36:55.854Z,82.18
2019-05-06T06:37:55.854Z,82.29
2019-05-06T06:38:55.834Z,82.29
2019-05-06T06:39:55.810Z,81.98
2019-05-06T06:40:55.825Z,82.50
2019-05-06T06:41:55.786Z,82.29
2019-05-06T06:42:55.782Z,82.29
2019-05-06T06:43:55.792Z,82.29
2019-05-06T06:44:55.758Z,82.08
2019-05-06T06:45:55.742Z,81.77
2019-05-06T06:46:55.742Z,83.32
2019-05-06T06:47:55.737Z,83.63
2019-05-06T06:48:55.721Z,83.18
2019-05-06T06:49:55.725Z,82.66
2019-05-06T06:50:55.742Z,82.45
2019-05-06T06:51:55.694Z,81.94
2019-05-06T06:52:55.670Z,82.76
2019-05-06T06:53:55.658Z,81.80
2019-05-06T06:54:55.658Z,81.28
2019-05-06T06:55:55.662Z,82.00
2019-05-06T06:57:05.622Z,81.38
2019-05-06T06:57:56.610Z,81.59
2019-05-06T06:58:55.598Z,81.42
2019-05-06T06:59:55.594Z,81.11
2019-05-06T07:00:55.582Z,80.46
2019-05-06T07:01:55.610Z,81.11
2019-05-06T07:02:55.553Z,81.21
2019-05-06T07:03:55.545Z,81.42
2019-05-06T07:04:55.533Z,81.07
2019-05-06T07:05:55.522Z,81.52
2019-05-06T07:06:55.514Z,81.84
2019-05-06T07:07:55.594Z,81.49
2019-05-06T07:08:55.489Z,81.49
2019-05-06T07:09:55.482Z,81.80
2019-05-06T07:10:55.468Z,81.07
2019-05-06T07:11:55.462Z,81.04
2019-05-06T07:12:55.471Z,81.28
2019-05-06T07:13:55.431Z,80.76
2019-05-06T07:14:55.430Z,80.21
2019-05-06T07:15:55.422Z,79.69
2019-05-06T07:16:55.394Z,80.00
2019-05-06T07:17:55.390Z,80.00
2019-05-06T07:18:55.392Z,79.80
2019-05-06T07:19:55.366Z,80.32
2019-05-06T07:20:55.379Z,80.21
2019-05-06T07:21:55.394Z,79.18
2019-05-06T07:22:55.338Z,79.76
2019-05-06T07:23:55.326Z,79.14
2019-05-06T07:24:55.322Z,78.83
2019-05-06T07:25:55.298Z,78.87
2019-05-06T07:26:55.306Z,79.08
2019-05-06T07:27:55.294Z,78.94
2019-05-06T07:28:55.269Z,79.45
2019-05-06T07:29:55.253Z,78.42
2019-05-06T07:30:55.242Z,79.25
2019-05-06T07:31:55.226Z,78.73
2019-05-06T07:32:55.241Z,78.63
2019-05-06T07:33:55.214Z,78.52
2019-05-06T07:34:55.205Z,78.63
2019-05-06T07:35:55.190Z,78.77
2019-05-06T07:36:55.195Z,78.83
2019-05-06T07:37:55.165Z,78.83
2019-05-06T07:38:55.177Z,78.73
2019-05-06T07:39:55.138Z,78.94
2019-05-06T07:40:55.154Z,78.42
2019-05-06T07:41:55.118Z,78.31
2019-05-06T07:42:55.131Z,79.04
2019-05-06T07:43:55.098Z,78.73
2019-05-06T07:44:55.093Z,78.21
2019-05-06T07:45:55.098Z,77.91
2019-05-06T07:46:55.062Z,78.21
2019-05-06T07:47:55.054Z,77.56
2019-05-06T07:48:55.049Z,77.97
2019-05-06T07:49:55.033Z,77.94
2019-05-06T07:50:55.014Z,76.97
2019-05-06T07:51:55.029Z,75.81
2019-05-06T07:52:54.994Z,75.70
2019-05-06T07:53:54.986Z,74.05
2019-05-06T07:54:54.970Z,74.77
2019-05-06T07:55:55.014Z,75.39
2019-05-06T07:56:54.957Z,75.29
2019-05-06T07:57:54.958Z,74.43
2019-05-06T07:58:54.925Z,76.01
2019-05-06T07:59:54.925Z,74.16
2019-05-06T08:00:54.902Z,74.43
2019-05-06T08:01:54.897Z,73.71
2019-05-06T08:02:54.894Z,74.33
2019-05-06T08:03:54.897Z,73.30
2019-05-06T08:04:54.867Z,73.19
2019-05-06T08:05:58.580Z,72.99
2019-05-06T08:06:54.841Z,72.37
2019-05-06T08:07:55.242Z,73.47
2019-05-06T08:08:54.849Z,72.75
2019-05-06T08:09:54.801Z,72.75
2019-05-06T08:10:54.797Z,72.13
2019-05-06T08:11:54.810Z,72.96
2019-05-06T08:12:54.778Z,73.13
2019-05-06T08:13:54.758Z,71.48
2019-05-06T08:14:54.750Z,70.35
2019-05-06T08:15:54.756Z,70.45
2019-05-06T08:16:54.745Z,71.17
2019-05-06T08:17:54.774Z,71.17
2019-05-06T08:18:54.707Z,70.76
2019-05-06T08:19:54.719Z,71.58
2019-05-06T08:20:54.698Z,71.58
2019-05-06T08:21:54.675Z,72.17
2019-05-06T08:22:56.511Z,71.69
2019-05-06T08:23:54.649Z,71.89
2019-05-06T08:24:54.637Z,71.37
2019-05-06T08:26:08.309Z,70.66
2019-05-06T08:26:55.630Z,70.25
2019-05-06T08:27:54.601Z,69.73
2019-05-06T08:28:54.613Z,70.56
2019-05-06T08:29:54.581Z,70.56
2019-05-06T08:30:54.610Z,70.66
2019-05-06T08:31:54.562Z,71.00
2019-05-06T08:32:54.546Z,71.10
2019-05-06T08:33:54.537Z,72.47
2019-05-06T08:34:54.541Z,73.47
2019-05-06T08:36:07.557Z,72.20
2019-05-06T08:36:55.509Z,71.48
2019-05-06T08:37:54.497Z,72.27
2019-05-06T08:38:54.491Z,72.27
2019-05-06T08:39:54.508Z,70.83
2019-05-06T08:40:54.474Z,70.32
2019-05-06T08:41:54.450Z,70.11
2019-05-06T08:42:54.438Z,70.01
2019-05-06T08:43:54.426Z,70.70
2019-05-06T08:44:54.432Z,67.92
2019-05-06T08:45:54.409Z,68.43
2019-05-06T08:46:54.407Z,68.95
2019-05-06T08:47:54.385Z,67.30
2019-05-06T08:48:54.372Z,67.10
2019-05-06T08:49:54.365Z,67.51
2019-05-06T08:50:54.353Z,66.14
2019-05-06T08:51:54.348Z,67.17
2019-05-06T08:52:54.334Z,66.45
2019-05-06T08:53:54.313Z,66.93
2019-05-06T08:54:54.305Z,65.70
2019-05-06T08:55:54.301Z,64.26
2019-05-06T08:56:54.362Z,64.78
2019-05-06T08:57:54.269Z,64.98
2019-05-06T08:58:54.261Z,64.78
2019-05-06T08:59:54.249Z,65.29
2019-05-06T09:00:57.382Z,64.47
2019-05-06T09:01:54.226Z,65.77
2019-05-06T09:02:54.229Z,64.20
2019-05-06T09:04:08.328Z,62.05
2019-05-06T09:04:55.193Z,62.29
2019-05-06T09:05:54.187Z,63.13
2019-05-06T09:06:54.169Z,64.50
2019-05-06T09:07:54.161Z,64.91
2019-05-06T09:08:56.861Z,65.53
2019-05-06T09:09:54.169Z,65.01
2019-05-06T09:10:54.125Z,64.40
2019-05-06T09:11:54.116Z,62.37
2019-05-06T09:12:54.149Z,62.06
2019-05-06T09:13:54.093Z,61.65
2019-05-06T09:14:54.105Z,61.62
2019-05-06T09:15:54.109Z,60.91
2019-05-06T09:16:54.304Z,61.80
2019-05-06T09:17:54.085Z,64.06
2019-05-06T09:18:54.039Z,62.59
2019-05-06T09:19:54.034Z,62.36
2019-05-06T09:20:54.028Z,61.82
2019-05-06T09:21:54.011Z,58.54
2019-05-06T09:22:53.990Z,59.28
2019-05-06T09:23:53.978Z,59.08
2019-05-06T09:24:53.970Z,60.72
2019-05-06T09:25:53.965Z,60.51
2019-05-06T09:26:53.978Z,61.36
2019-05-06T09:27:53.937Z,61.26
2019-05-06T09:28:53.937Z,60.13
2019-05-06T09:29:53.941Z,58.90
2019-05-06T09:30:53.901Z,57.75
2019-05-06T09:31:53.889Z,58.77
2019-05-06T09:32:53.889Z,59.18
2019-05-06T09:33:53.885Z,56.38
2019-05-06T09:34:53.869Z,58.64
2019-05-06T09:35:53.846Z,57.89
2019-05-06T09:36:54.938Z,57.07
2019-05-06T09:37:53.827Z,58.51
2019-05-06T09:38:53.829Z,58.81
2019-05-06T09:39:53.852Z,58.61
2019-05-06T09:40:53.789Z,58.23
2019-05-06T09:41:57.710Z,59.15
2019-05-06T09:42:53.765Z,59.36
2019-05-06T09:43:53.760Z,58.56
2019-05-06T09:44:54.446Z,60.21
2019-05-06T09:45:53.813Z,59.18
2019-05-06T09:46:53.733Z,59.41
2019-05-06T09:47:53.713Z,59.92
2019-05-06T09:48:53.701Z,59.80
2019-05-06T09:49:53.693Z,58.95
2019-05-06T09:50:53.954Z,57.59
2019-05-06T09:51:53.729Z,58.40
2019-05-06T09:52:53.658Z,58.28
2019-05-06T09:53:53.649Z,57.61
2019-05-06T09:54:53.772Z,55.36
2019-05-06T09:55:53.641Z,57.10
2019-05-06T09:56:53.649Z,56.46
2019-05-06T09:57:53.601Z,55.82
2019-05-06T09:58:53.588Z,54.28
2019-05-06T09:59:53.581Z,55.82
2019-05-06T10:00:53.606Z,56.43
2019-05-06T10:01:53.569Z,54.61
2019-05-06T10:02:53.546Z,55.97
2019-05-06T10:03:53.553Z,56.89
2019-05-06T10:04:53.529Z,56.79
2019-05-06T10:05:53.513Z,57.33
2019-05-06T10:06:59.040Z,56.23
2019-05-06T10:07:54.497Z,58.58
2019-05-06T10:08:53.493Z,57.46
2019-05-06T10:09:53.471Z,59.02
2019-05-06T10:10:59.348Z,59.64
2019-05-06T10:11:54.461Z,57.66
2019-05-06T10:12:53.441Z,55.43
2019-05-06T10:13:53.421Z,55.59
2019-05-06T10:14:53.467Z,56.20
2019-05-06T10:15:53.398Z,56.10
2019-05-06T10:16:53.385Z,58.05
2019-05-06T10:17:53.377Z,57.95
2019-05-06T10:18:53.421Z,56.62
2019-05-06T10:19:53.357Z,56.79
2019-05-06T10:20:53.345Z,54.33
2019-05-06T10:21:53.341Z,54.64
2019-05-06T10:22:53.321Z,56.67
2019-05-06T10:23:53.312Z,56.10
2019-05-06T10:24:53.321Z,53.59
2019-05-06T10:25:53.325Z,52.37
2019-05-06T10:26:53.285Z,50.32
2019-05-06T10:27:53.265Z,49.99
2019-05-06T10:28:53.257Z,50.20
2019-05-06T10:29:53.277Z,50.68
2019-05-06T10:30:53.249Z,51.17
2019-05-06T10:31:53.221Z,51.04
2019-05-06T10:32:53.237Z,48.88
2019-05-06T10:33:53.240Z,48.85
2019-05-06T10:34:53.189Z,46.81
2019-05-06T10:35:53.193Z,48.47
2019-05-06T10:36:53.404Z,48.98
2019-05-06T10:37:53.244Z,49.67
2019-05-06T10:38:53.149Z,47.63
2019-05-06T10:39:53.181Z,46.92
2019-05-06T10:41:02.118Z,46.81
2019-05-06T10:41:54.141Z,46.20
2019-05-06T10:42:53.097Z,47.53
2019-05-06T10:43:53.150Z,47.63
2019-05-06T10:44:53.243Z,46.59
2019-05-06T10:45:53.089Z,44.78
2019-05-06T10:46:53.069Z,44.57
2019-05-06T10:47:53.825Z,44.45
2019-05-06T10:48:53.196Z,45.06
2019-05-06T10:49:53.122Z,44.22
2019-05-06T10:50:53.012Z,44.55
2019-05-06T10:51:53.113Z,45.08
2019-05-06T10:52:52.981Z,44.18
2019-05-06T10:53:52.971Z,46.45
2019-05-06T10:54:53.007Z,47.60
2019-05-06T10:55:53.578Z,48.10
2019-05-06T10:56:56.981Z,49.05
2019-05-06T10:57:53.215Z,48.46
2019-05-06T10:58:52.944Z,48.79
2019-05-06T10:59:52.947Z,47.68
2019-05-06T11:00:53.022Z,47.89
2019-05-06T11:01:52.885Z,48.81
2019-05-06T11:02:52.878Z,48.89
2019-05-06T11:03:52.869Z,48.68
2019-05-06T11:04:53.147Z,48.48
2019-05-06T11:05:53.619Z,48.27
2019-05-06T11:06:52.889Z,48.17
2019-05-06T11:07:52.817Z,49.50
2019-05-06T11:08:52.805Z,48.68
2019-05-06T11:09:53.388Z,49.91
2019-05-06T11:10:53.580Z,50.32
2019-05-06T11:11:52.789Z,50.63
2019-05-06T11:12:52.762Z,50.12
2019-05-06T11:13:52.746Z,50.37
2019-05-06T11:14:53.205Z,48.31
2019-05-06T11:15:55.412Z,48.61
2019-05-06T11:16:52.741Z,48.18
2019-05-06T11:17:52.729Z,46.83
2019-05-06T11:18:53.488Z,46.30
2019-05-06T11:19:53.299Z,46.81
2019-05-06T11:20:56.161Z,44.55
2019-05-06T11:21:53.182Z,45.08
2019-05-06T11:22:52.921Z,45.40
2019-05-06T11:23:52.837Z,45.81
2019-05-06T11:24:52.622Z,44.78
2019-05-06T11:25:52.836Z,46.08
2019-05-06T11:26:53.408Z,46.36
2019-05-06T11:27:52.920Z,46.67
2019-05-06T11:28:52.593Z,45.24
2019-05-06T11:29:53.155Z,45.24
2019-05-06T11:30:52.948Z,46.26
2019-05-06T11:31:54.240Z,45.57
2019-05-06T11:32:54.725Z,46.30
2019-05-06T11:33:52.665Z,46.33
2019-05-06T11:34:52.714Z,46.81
2019-05-06T11:35:52.919Z,46.89
2019-05-06T11:36:52.654Z,44.63
2019-05-06T11:37:54.301Z,44.43
2019-05-06T11:38:52.473Z,44.59
2019-05-06T11:39:52.982Z,42.86
2019-05-06T11:40:53.169Z,46.22
2019-05-06T11:42:06.369Z,44.67
2019-05-06T11:42:53.425Z,42.45
2019-05-06T11:43:52.425Z,41.82
2019-05-06T11:44:53.153Z,41.72
2019-05-06T11:45:52.413Z,40.60
2019-05-06T11:46:52.441Z,40.62
2019-05-06T11:47:55.884Z,42.33
2019-05-06T11:48:52.423Z,42.04
2019-05-06T11:49:55.861Z,40.92
2019-05-06T11:50:52.373Z,41.96
2019-05-06T11:51:52.333Z,42.37
2019-05-06T11:52:53.007Z,42.69
2019-05-06T11:53:54.175Z,43.41
2019-05-06T11:54:52.846Z,44.24
2019-05-06T11:55:54.582Z,45.08
2019-05-06T11:56:57.990Z,43.84
2019-05-06T11:57:53.265Z,45.16
2019-05-06T11:58:53.174Z,44.75
2019-05-06T11:59:52.759Z,46.06
2019-05-06T12:00:52.687Z,45.14
2019-05-06T12:01:53.376Z,45.54
2019-05-06T12:02:53.333Z,43.12
2019-05-06T12:03:52.281Z,44.04
2019-05-06T12:04:52.781Z,44.96
2019-05-06T12:05:52.615Z,45.67
2019-05-06T12:06:54.073Z,46.20
2019-05-06T12:08:01.801Z,46.18
2019-05-06T12:08:53.125Z,46.71
2019-05-06T12:09:53.990Z,46.81
2019-05-06T12:10:52.173Z,45.31
2019-05-06T12:11:52.907Z,46.94
2019-05-06T12:12:53.340Z,45.81
2019-05-06T12:13:53.278Z,46.43
2019-05-06T12:14:52.794Z,46.04
2019-05-06T12:15:52.509Z,46.75
2019-05-06T12:16:54.855Z,45.92
2019-05-06T12:17:53.434Z,48.44
2019-05-06T12:18:52.934Z,48.30
2019-05-06T12:19:52.761Z,45.22
2019-05-06T12:20:52.778Z,46.44
2019-05-06T12:21:52.013Z,45.04
2019-05-06T12:22:52.872Z,45.04
2019-05-06T12:23:53.754Z,45.08
2019-05-06T12:24:52.610Z,46.20
2019-05-06T12:25:52.939Z,46.30
2019-05-06T12:26:52.291Z,46.83
2019-05-06T12:27:52.618Z,48.26
2019-05-06T12:28:53.135Z,47.96
2019-05-06T12:29:52.783Z,47.73
2019-05-06T12:30:52.425Z,47.42
2019-05-06T12:31:52.932Z,47.45
2019-05-06T12:32:52.692Z,48.65
2019-05-06T12:33:53.342Z,47.42
2019-05-06T12:34:52.488Z,46.08
2019-05-06T12:35:52.117Z,45.98
2019-05-06T12:36:52.786Z,47.40
2019-05-06T12:37:53.080Z,47.89
2019-05-06T12:38:52.437Z,44.73
2019-05-06T12:39:53.332Z,45.94
2019-05-06T12:40:53.025Z,45.47
2019-05-06T12:41:53.431Z,45.69
2019-05-06T12:42:53.510Z,46.10
2019-05-06T12:43:51.738Z,46.41
2019-05-06T12:44:52.898Z,46.71
2019-05-06T12:45:53.144Z,46.30
2019-05-06T12:46:52.883Z,46.53
2019-05-06T12:47:53.338Z,47.34
2019-05-06T12:48:52.135Z,48.26
2019-05-06T12:49:53.360Z,49.13
2019-05-06T12:50:52.531Z,50.86
2019-05-06T12:51:53.657Z,50.35